createdAt,value
2018-05-23T10:12:19.749Z,37.80
2018-05-23T10:14:47.213Z,37.70
2018-05-23T10:17:14.668Z,36.10
2018-05-23T10:19:43.029Z,35.00
2018-05-23T10:22:11.705Z,35.90
2018-05-23T10:24:39.193Z,35.50
2018-05-23T10:27:06.659Z,37.40
2018-05-23T10:29:34.112Z,35.30
2018-05-23T10:32:01.569Z,30.90
2018-05-23T10:34:29.016Z,32.60
2018-05-23T10:36:56.485Z,31.70
2018-05-23T10:39:23.933Z,30.30
2018-05-23T10:41:51.407Z,29.60
2018-05-23T10:44:18.853Z,27.50
2018-05-23T10:46:46.313Z,27.90
2018-05-23T10:49:13.766Z,29.60
2018-05-23T10:51:41.250Z,27.80
2018-05-23T10:54:08.694Z,28.30
2018-05-23T10:56:36.241Z,26.50
2018-05-23T10:59:03.620Z,26.10
2018-05-23T11:01:31.096Z,26.00
2018-05-23T11:03:59.461Z,28.30
2018-05-23T11:06:26.916Z,28.70
2018-05-23T11:08:55.173Z,28.40
2018-05-23T11:11:22.765Z,28.20
2018-05-23T11:13:50.437Z,29.50
2018-05-23T11:16:17.960Z,32.10
2018-05-23T11:18:45.455Z,33.80
2018-05-23T11:21:13.053Z,34.30
2018-05-23T11:23:41.421Z,30.80
2018-05-23T11:26:09.223Z,30.70
2018-05-23T11:28:36.858Z,28.80
2018-05-23T11:31:04.516Z,28.10
2018-05-23T11:33:32.068Z,29.90
2018-05-23T11:36:00.667Z,28.00
2018-05-23T11:38:28.345Z,28.50
2018-05-23T11:40:55.928Z,29.40
2018-05-23T11:43:24.221Z,33.00
2018-05-23T11:45:51.941Z,32.90
2018-05-23T11:48:19.679Z,33.50
2018-05-23T11:50:48.335Z,35.30
2018-05-23T11:53:16.151Z,36.10
2018-05-23T11:55:43.620Z,39.90
2018-05-23T11:58:11.072Z,40.10
2018-05-23T12:00:38.533Z,40.00
2018-05-23T12:03:06.075Z,40.30
2018-05-23T12:05:33.524Z,39.70
2018-05-23T12:08:00.977Z,39.40
2018-05-23T12:10:28.491Z,41.80
2018-05-23T12:12:56.247Z,42.40
2018-05-23T12:15:23.911Z,43.10
2018-05-23T12:17:51.458Z,42.30
2018-05-23T12:20:18.962Z,43.60
2018-05-23T12:22:46.518Z,43.90
2018-05-23T12:25:13.984Z,43.60
2018-05-23T12:27:42.193Z,43.70
2018-05-23T12:30:10.510Z,43.70
2018-05-23T12:32:38.071Z,42.60
2018-05-23T12:35:05.568Z,42.60
2018-05-23T12:37:33.052Z,40.20
2018-05-23T12:40:00.529Z,38.30
2018-05-23T12:42:28.039Z,36.90
2018-05-23T12:47:24.836Z,31.50
2018-05-23T12:49:53.255Z,30.90
2018-05-23T12:52:20.871Z,30.20
2018-05-23T12:54:49.173Z,27.80
2018-05-23T12:57:16.706Z,27.70
2018-05-23T12:59:44.253Z,28.10
2018-05-23T13:02:12.640Z,25.60
2018-05-23T13:04:43.952Z,25.20
2018-05-23T13:07:11.495Z,25.20
2018-05-23T13:09:39.116Z,25.10
2018-05-23T13:12:07.024Z,24.90
2018-05-23T13:14:34.636Z,25.60
2018-05-23T13:17:02.283Z,26.80
2018-05-23T13:19:29.853Z,29.10
2018-05-23T13:21:57.355Z,30.60
2018-05-23T13:24:24.865Z,30.20
2018-05-23T13:26:52.351Z,31.30
2018-05-23T13:29:20.622Z,32.80
2018-05-23T13:31:48.891Z,32.60
2018-05-23T13:34:16.521Z,32.50
2018-05-23T13:36:44.029Z,34.00
2018-05-23T13:39:11.491Z,33.60
2018-05-23T13:41:39.739Z,32.20
2018-05-23T13:44:07.208Z,32.20
2018-05-23T13:46:34.713Z,34.20
2018-05-23T13:49:02.181Z,33.30
2018-05-23T13:51:29.680Z,32.70
2018-05-23T13:53:57.915Z,33.60
2018-05-23T13:56:25.432Z,33.00
2018-05-23T13:58:52.905Z,33.50
2018-05-23T14:01:20.386Z,34.30
2018-05-23T14:03:48.848Z,35.00
2018-05-23T14:06:16.345Z,37.40
2018-05-23T14:08:43.813Z,36.30
2018-05-23T14:11:11.297Z,36.90
2018-05-23T14:13:38.774Z,37.60
2018-05-23T14:16:06.309Z,38.80
2018-05-23T14:18:33.822Z,38.90
2018-05-23T14:21:02.759Z,37.90
2018-05-23T14:23:30.421Z,37.90
2018-05-23T14:25:59.023Z,36.80
2018-05-23T14:28:26.721Z,36.70
2018-05-23T14:30:54.125Z,35.90
2018-05-23T14:33:21.641Z,34.90
2018-05-23T14:35:49.112Z,36.90
2018-05-23T14:38:16.621Z,36.20
2018-05-23T14:40:44.051Z,35.90
2018-05-23T14:43:11.586Z,36.20
2018-05-23T14:45:39.077Z,35.70
2018-05-23T14:48:06.587Z,35.20
2018-05-23T14:50:35.026Z,35.70
2018-05-23T14:53:02.596Z,37.70
2018-05-23T14:55:30.086Z,41.00
2018-05-23T14:57:57.588Z,39.00
2018-05-23T15:00:25.908Z,37.00
2018-05-23T15:02:53.409Z,37.00
2018-05-23T15:05:21.674Z,39.70
2018-05-23T15:07:50.397Z,42.60
2018-05-23T15:10:17.940Z,42.50
2018-05-23T15:12:46.279Z,40.90
2018-05-23T15:15:13.817Z,40.80
2018-05-23T15:17:41.356Z,40.70
2018-05-23T15:20:09.155Z,42.40
2018-05-23T15:22:36.637Z,40.40
2018-05-23T15:25:04.147Z,41.00
2018-05-23T15:27:31.704Z,41.00
2018-05-23T15:29:59.162Z,42.00
2018-05-23T15:32:26.636Z,41.90
2018-05-23T18:16:48.616Z,70.40
2018-05-23T18:19:16.821Z,72.60
2018-05-23T18:21:44.279Z,72.50
2018-05-23T18:24:11.743Z,73.20
2018-05-23T18:26:39.211Z,75.50
2018-05-23T18:29:06.680Z,76.40
2018-05-23T18:31:34.151Z,74.30
2018-05-23T18:34:02.513Z,70.90
2018-05-23T18:36:29.982Z,70.90
2018-05-23T18:38:58.255Z,69.80
2018-05-23T18:41:26.603Z,71.40
2018-05-23T18:43:54.084Z,71.40
2018-05-23T18:46:21.546Z,72.20
2018-05-23T18:48:49.013Z,72.50
2018-05-23T18:51:18.262Z,74.40
2018-05-23T18:53:45.735Z,75.00
2018-05-23T18:56:13.322Z,75.80
2018-05-23T18:58:41.575Z,83.90
2018-05-23T19:01:09.045Z,83.80
2018-05-23T19:03:37.366Z,91.80
2018-05-23T19:06:04.867Z,91.70
2018-05-23T19:08:32.344Z,92.40
2018-05-23T19:11:00.604Z,93.50
2018-05-23T19:13:28.130Z,93.50
2018-05-23T19:15:55.692Z,93.80
2018-05-23T19:18:23.186Z,94.10
2018-05-23T19:20:50.692Z,94.50
2018-05-23T19:23:18.189Z,94.70
2018-05-23T19:25:45.664Z,94.80
2018-05-23T19:28:13.909Z,95.10
2018-05-23T19:30:41.375Z,95.10
2018-05-23T19:33:08.865Z,95.00
2018-05-23T19:35:37.108Z,95.30
2018-05-23T19:38:04.680Z,95.30
2018-05-23T19:40:35.584Z,95.50
2018-05-23T19:43:03.056Z,95.70
2018-05-23T19:45:30.520Z,95.80
2018-05-23T19:47:58.000Z,95.90
2018-05-23T19:50:25.454Z,96.20
2018-05-23T19:52:52.965Z,96.30
2018-05-23T19:55:21.161Z,96.30
2018-05-23T19:57:48.617Z,96.20
2018-05-23T20:00:16.094Z,96.30
2018-05-23T20:02:43.557Z,96.50
2018-05-23T20:05:11.061Z,96.80
2018-05-23T20:07:38.521Z,96.80
2018-05-23T20:10:06.757Z,97.00
2018-05-23T20:12:34.990Z,97.00
2018-05-23T20:15:02.459Z,97.00
2018-05-23T20:17:29.908Z,97.00
2018-05-23T20:19:57.388Z,97.10
2018-05-23T20:22:24.857Z,97.20
2018-05-23T20:24:53.092Z,97.00
2018-05-23T20:27:20.553Z,97.00
2018-05-23T20:29:48.022Z,97.00
2018-05-23T20:32:15.485Z,97.00
2018-05-23T20:34:42.948Z,97.00
2018-05-23T20:37:10.401Z,96.90
2018-05-23T20:39:37.864Z,97.00
2018-05-23T20:42:05.316Z,97.00
2018-05-23T20:44:32.772Z,96.90
2018-05-23T20:47:00.217Z,96.90
2018-05-23T20:49:27.679Z,96.80
2018-05-23T20:51:55.130Z,96.80
2018-05-23T20:54:22.588Z,96.70
2018-05-23T20:56:50.044Z,96.70
2018-05-23T20:59:17.507Z,96.70
2018-05-23T21:01:44.963Z,96.80
2018-05-23T21:04:12.426Z,96.80
2018-05-23T21:06:39.871Z,96.80
2018-05-23T21:09:07.331Z,96.80
2018-05-23T21:11:34.868Z,96.80
2018-05-23T21:14:02.247Z,97.10
2018-05-23T21:16:29.699Z,96.90
2018-05-23T21:18:57.163Z,96.90
2018-05-23T21:21:24.622Z,96.90
2018-05-23T21:23:52.084Z,96.90
2018-05-23T21:26:19.536Z,97.00
2018-05-23T21:28:46.998Z,97.00
2018-05-23T21:31:14.453Z,97.30
2018-05-23T21:33:41.919Z,97.00
2018-05-23T21:36:09.355Z,97.00
2018-05-23T21:38:36.822Z,97.00
2018-05-23T21:41:04.267Z,97.10
2018-05-23T21:43:31.723Z,97.00
2018-05-23T21:45:59.187Z,97.00
2018-05-23T21:48:26.637Z,97.00
2018-05-23T21:50:54.093Z,96.90
2018-05-23T21:53:21.543Z,97.00
2018-05-23T21:55:48.995Z,97.00
2018-05-23T21:58:16.448Z,97.10
2018-05-23T22:00:43.908Z,97.00
2018-05-23T22:03:11.355Z,97.00
2018-05-23T22:05:38.816Z,97.00
2018-05-23T22:08:06.268Z,97.10
2018-05-23T22:10:33.731Z,97.00
2018-05-23T22:13:01.188Z,97.10
2018-05-23T22:15:28.635Z,97.10
2018-05-23T22:17:56.852Z,97.10
2018-05-23T22:20:24.311Z,97.10
2018-05-23T22:22:51.751Z,97.10
2018-05-23T22:25:19.211Z,97.10
2018-05-23T22:27:46.664Z,97.00
2018-05-23T22:30:14.148Z,97.00
2018-05-23T22:32:41.585Z,96.90
2018-05-23T22:35:09.043Z,97.00
2018-05-23T22:37:36.491Z,96.90
2018-05-23T22:40:03.951Z,96.90
2018-05-23T22:42:31.408Z,96.90
2018-05-23T22:44:58.864Z,96.90
2018-05-23T22:47:26.319Z,96.80
2018-05-23T22:49:53.776Z,97.00
2018-05-23T22:52:21.248Z,96.90
2018-05-23T22:54:48.704Z,97.10
2018-05-23T22:57:16.170Z,97.10
2018-05-23T22:59:43.619Z,97.10
2018-05-23T23:02:11.087Z,97.00
2018-05-23T23:04:38.539Z,97.00
2018-05-23T23:07:06.000Z,97.00
2018-05-23T23:09:33.465Z,97.00
2018-05-23T23:12:00.912Z,97.00
2018-05-23T23:14:28.359Z,97.10
2018-05-23T23:16:55.815Z,97.00
2018-05-23T23:19:23.271Z,96.90
2018-05-23T23:21:50.736Z,96.90
2018-05-23T23:24:18.188Z,96.90
2018-05-23T23:26:45.652Z,96.80
2018-05-23T23:29:13.100Z,96.80
2018-05-23T23:31:40.555Z,96.70
2018-05-23T23:34:08.012Z,96.70
2018-05-23T23:36:35.472Z,96.70
2018-05-23T23:39:02.920Z,96.70
2018-05-23T23:41:30.380Z,96.90
2018-05-23T23:43:57.827Z,96.90
2018-05-23T23:46:25.291Z,96.90
2018-05-23T23:48:52.748Z,96.90
2018-05-23T23:51:20.216Z,96.80
2018-05-23T23:53:47.671Z,96.90
2018-05-23T23:56:15.123Z,96.90
2018-05-23T23:58:42.584Z,96.80
